createdAt,value
2023-05-13T00:04:24.111Z,13.10
2023-05-13T00:10:25.965Z,13.20
2023-05-13T00:16:28.879Z,13.20
2023-05-13T00:22:30.720Z,13.50
2023-05-13T00:28:32.582Z,13.60
2023-05-13T00:34:34.445Z,13.50
2023-05-13T00:40:39.756Z,13.50
2023-05-13T00:46:42.430Z,13.40
2023-05-13T00:52:44.529Z,13.30
2023-05-13T00:58:46.450Z,13.40
2023-05-13T01:05:03.139Z,13.50
2023-05-13T01:11:16.107Z,13.60
2023-05-13T01:17:32.735Z,13.30
2023-05-13T01:23:34.600Z,13.10
2023-05-13T01:29:37.792Z,12.80
2023-05-13T01:35:39.713Z,12.70
2023-05-13T01:41:41.560Z,12.60
2023-05-13T01:47:43.322Z,12.70
2023-05-13T01:53:46.332Z,12.70
2023-05-13T01:59:48.096Z,12.60
2023-05-13T02:05:50.030Z,12.60
2023-05-13T02:11:51.958Z,12.60
2023-05-13T02:17:54.937Z,12.80
2023-05-13T02:23:56.887Z,13.00
2023-05-13T02:29:58.680Z,13.10
2023-05-13T02:36:00.472Z,12.90
2023-05-13T02:42:03.061Z,12.80
2023-05-13T02:48:04.984Z,13.00
2023-05-13T02:54:07.313Z,12.90
2023-05-13T03:00:09.786Z,12.50
2023-05-13T03:06:11.702Z,12.30
2023-05-13T03:12:13.628Z,12.20
2023-05-13T03:18:15.523Z,12.30
2023-05-13T03:24:17.359Z,12.20
2023-05-13T03:30:22.292Z,12.30
2023-05-13T03:36:24.483Z,12.10
2023-05-13T03:42:26.620Z,11.70
2023-05-13T03:48:28.455Z,11.80
2023-05-13T03:54:30.256Z,11.90
2023-05-13T04:00:32.032Z,12.10
2023-05-13T04:06:33.973Z,12.10
2023-05-13T04:12:35.820Z,12.00
2023-05-13T04:18:37.729Z,11.70
2023-05-13T04:24:39.594Z,11.70
2023-05-13T04:30:41.482Z,11.90
2023-05-13T04:36:43.379Z,12.30
2023-05-13T04:42:45.369Z,12.20
2023-05-13T04:48:48.678Z,13.00
2023-05-13T04:54:51.147Z,13.60
2023-05-13T05:00:52.956Z,14.40
2023-05-13T05:06:54.822Z,15.10
2023-05-13T05:12:58.149Z,14.80
2023-05-13T05:18:59.971Z,15.00
2023-05-13T05:25:01.910Z,15.30
2023-05-13T05:31:06.462Z,14.80
2023-05-13T05:37:08.414Z,14.20
2023-05-13T05:43:13.840Z,14.30
2023-05-13T05:49:15.785Z,13.90
2023-05-13T05:55:17.807Z,14.30
2023-05-13T06:01:19.957Z,14.60
2023-05-13T06:07:21.932Z,15.10
2023-05-13T06:13:23.968Z,14.00
2023-05-13T06:19:25.760Z,14.80
2023-05-13T06:25:27.564Z,14.70
2023-05-13T06:31:29.361Z,14.80
2023-05-13T06:37:31.163Z,15.60
2023-05-13T06:43:34.290Z,16.10
2023-05-13T06:49:36.205Z,17.10
2023-05-13T06:55:41.574Z,16.70
2023-05-13T07:01:43.673Z,16.40
2023-05-13T07:07:46.048Z,16.80
2023-05-13T07:13:47.917Z,16.70
2023-05-13T07:19:49.862Z,17.00
2023-05-13T07:25:52.511Z,17.20
2023-05-13T07:31:54.355Z,16.60
2023-05-13T07:37:56.309Z,16.00
2023-05-13T07:43:58.123Z,16.20
2023-05-13T07:50:00.417Z,16.40
2023-05-13T07:56:02.578Z,16.50
2023-05-13T08:02:04.444Z,16.70
2023-05-13T08:08:06.547Z,16.90
2023-05-13T08:14:08.400Z,17.10
2023-05-13T08:20:11.565Z,17.40
2023-05-13T08:26:13.818Z,17.70
2023-05-13T08:32:15.665Z,17.80
2023-05-13T08:38:17.533Z,18.00
2023-05-13T08:44:22.632Z,18.20
2023-05-13T08:50:25.689Z,18.10
2023-05-13T08:56:29.170Z,18.50
2023-05-13T09:02:32.050Z,18.70
2023-05-13T09:08:34.355Z,18.80
2023-05-13T09:14:38.580Z,18.80
2023-05-13T09:20:42.684Z,19.30
2023-05-13T09:26:45.704Z,19.50
2023-05-13T09:33:16.742Z,19.90
2023-05-13T09:39:18.605Z,19.60
2023-05-13T09:45:20.784Z,19.80
2023-05-13T09:51:27.284Z,19.90
2023-05-13T09:57:29.179Z,20.10
2023-05-13T10:03:31.865Z,20.30
2023-05-13T10:09:36.594Z,20.40
2023-05-13T10:15:48.506Z,20.50
2023-05-13T10:21:54.274Z,21.00
2023-05-13T10:27:57.900Z,20.80
2023-05-13T10:33:59.766Z,20.90
2023-05-13T10:40:42.107Z,20.50
2023-05-13T10:46:43.957Z,21.00
2023-05-13T10:52:48.702Z,21.30
2023-05-13T10:59:03.668Z,20.90
2023-05-13T11:05:05.970Z,20.90
2023-05-13T11:11:17.497Z,21.00
2023-05-13T11:17:20.802Z,21.10
2023-05-13T11:23:22.666Z,21.50
2023-05-13T11:29:36.060Z,21.50
2023-05-13T11:35:38.027Z,21.20
2023-05-13T11:41:42.554Z,21.40
2023-05-13T11:47:45.218Z,21.90
2023-05-13T11:53:47.038Z,21.80
2023-05-13T11:59:52.698Z,21.80
2023-05-13T12:06:06.564Z,21.90
2023-05-13T12:12:08.977Z,21.50
2023-05-13T12:18:10.955Z,20.80
2023-05-13T12:24:20.376Z,21.00
2023-05-13T12:30:22.149Z,21.40
2023-05-13T12:36:36.318Z,20.40
2023-05-13T12:42:38.278Z,20.30
2023-05-13T12:48:40.073Z,21.40
2023-05-13T12:54:41.917Z,20.50
2023-05-13T13:00:43.826Z,21.00
2023-05-13T13:06:45.714Z,21.30
2023-05-13T13:12:47.732Z,21.10
2023-05-13T13:18:51.826Z,21.30
2023-05-13T13:24:55.032Z,21.20
2023-05-13T13:30:56.884Z,21.40
2023-05-13T13:36:58.704Z,21.40
2023-05-13T13:43:00.461Z,21.30
2023-05-13T13:49:05.642Z,21.40
2023-05-13T13:55:16.105Z,20.70
2023-05-13T14:01:19.748Z,20.10
2023-05-13T14:07:21.797Z,20.10
2023-05-13T14:13:23.807Z,20.70
2023-05-13T14:19:26.332Z,21.00
2023-05-13T14:25:28.306Z,21.20
2023-05-13T14:31:30.619Z,21.20
2023-05-13T14:37:32.515Z,21.40
2023-05-13T14:43:34.274Z,20.90
2023-05-13T14:49:36.416Z,20.20
2023-05-13T14:55:38.371Z,19.80
2023-05-13T15:01:40.371Z,20.10
2023-05-13T15:07:42.217Z,20.70
2023-05-13T15:13:44.040Z,21.00
2023-05-13T15:19:46.582Z,20.70
2023-05-13T15:25:48.697Z,20.10
2023-05-13T15:31:51.152Z,19.80
2023-05-13T15:37:53.044Z,19.90
2023-05-13T15:43:54.922Z,20.60
2023-05-13T15:49:56.644Z,20.60
2023-05-13T15:55:58.403Z,20.00
2023-05-13T16:02:00.681Z,19.70
2023-05-13T16:08:02.456Z,19.60
2023-05-13T16:14:04.752Z,19.40
2023-05-13T16:20:08.990Z,19.30
2023-05-13T16:26:12.715Z,19.40
2023-05-13T16:32:14.513Z,19.50
2023-05-13T16:38:16.942Z,20.00
2023-05-13T16:44:18.837Z,20.30
2023-05-13T16:50:21.041Z,20.20
2023-05-13T16:56:23.053Z,20.50
2023-05-13T17:02:25.157Z,20.50
2023-05-13T17:08:26.978Z,20.50
2023-05-13T17:14:28.835Z,20.50
2023-05-13T17:20:30.689Z,20.40
2023-05-13T17:26:33.051Z,20.40
2023-05-13T17:32:35.732Z,20.30
2023-05-13T17:38:38.192Z,20.60
2023-05-13T17:44:39.985Z,20.60
2023-05-13T17:50:42.196Z,20.60
2023-05-13T17:56:43.958Z,20.90
2023-05-13T18:02:45.784Z,20.80
2023-05-13T18:08:47.627Z,20.40
2023-05-13T18:14:49.426Z,19.70
2023-05-13T18:20:51.332Z,19.40
2023-05-13T18:26:53.160Z,19.20
2023-05-13T18:32:55.137Z,19.00
2023-05-13T18:38:57.014Z,18.80
2023-05-13T18:44:58.828Z,18.60
2023-05-13T18:51:00.697Z,18.40
2023-05-13T18:57:02.553Z,18.20
2023-05-13T19:03:04.645Z,18.20
2023-05-13T19:09:06.994Z,18.10
2023-05-13T19:15:09.177Z,18.00
2023-05-13T19:21:19.550Z,17.80
2023-05-13T19:27:29.950Z,17.70
2023-05-13T19:33:43.488Z,17.60
2023-05-13T19:39:49.926Z,17.50
2023-05-13T19:45:52.950Z,17.60
2023-05-13T19:51:56.547Z,17.60
2023-05-13T19:57:59.161Z,17.30
2023-05-13T20:04:02.926Z,16.90
2023-05-13T20:10:07.279Z,16.60
2023-05-13T20:16:10.452Z,16.40
2023-05-13T20:22:13.353Z,16.20
2023-05-13T20:28:16.808Z,16.10
2023-05-13T20:34:19.662Z,15.90
2023-05-13T20:40:24.988Z,15.70
2023-05-13T20:46:28.951Z,15.80
2023-05-13T20:52:32.387Z,15.70
2023-05-13T20:58:35.045Z,15.50
2023-05-13T21:04:37.878Z,15.40
2023-05-13T21:10:41.684Z,15.40
2023-05-13T21:16:45.032Z,15.20
2023-05-13T21:22:49.290Z,15.10
2023-05-13T21:28:52.737Z,14.70
2023-05-13T21:34:57.777Z,15.00
2023-05-13T21:41:03.100Z,14.10
2023-05-13T21:47:07.006Z,14.10
2023-05-13T21:53:09.559Z,14.50
2023-05-13T21:59:12.879Z,14.60
2023-05-13T22:05:16.348Z,14.60
2023-05-13T22:11:20.870Z,14.60
2023-05-13T22:17:23.836Z,14.50
2023-05-13T22:23:29.532Z,14.10
2023-05-13T22:29:32.355Z,14.30
2023-05-13T22:35:37.508Z,14.10
2023-05-13T22:41:41.219Z,13.90
2023-05-13T22:47:43.791Z,13.80
2023-05-13T22:53:47.216Z,14.20
2023-05-13T22:59:50.101Z,13.90
2023-05-13T23:05:53.489Z,14.00
2023-05-13T23:11:59.576Z,14.00
2023-05-13T23:18:02.257Z,13.80
2023-05-13T23:24:06.054Z,13.70
2023-05-13T23:30:10.041Z,13.50
2023-05-13T23:36:13.590Z,14.00
2023-05-13T23:42:18.012Z,13.80
2023-05-13T23:48:20.245Z,13.60
2023-05-13T23:54:24.064Z,13.50
